sensor_id;sensor_type;location;lat;lon;timestamp;P1;durP1;ratioP1;P2;durP2;ratioP2
32864;SDS011;19219;44.500;11.188;2023-06-24T00:01:27;18.40;;;10.35;;
32864;SDS011;19219;44.500;11.188;2023-06-24T00:03:53;21.02;;;10.35;;
32864;SDS011;19219;44.500;11.188;2023-06-24T00:06:19;16.40;;;10.27;;
32864;SDS011;19219;44.500;11.188;2023-06-24T00:08:47;18.48;;;9.65;;
32864;SDS011;19219;44.500;11.188;2023-06-24T00:11:14;16.25;;;9.90;;
32864;SDS011;19219;44.500;11.188;2023-06-24T00:13:40;19.45;;;10.68;;
32864;SDS011;19219;44.500;11.188;2023-06-24T00:16:06;18.67;;;10.13;;
32864;SDS011;19219;44.500;11.188;2023-06-24T00:18:32;16.70;;;9.20;;
32864;SDS011;19219;44.500;11.188;2023-06-24T00:20:58;16.98;;;9.25;;
32864;SDS011;19219;44.500;11.188;2023-06-24T00:23:26;16.60;;;9.77;;
32864;SDS011;19219;44.500;11.188;2023-06-24T00:25:52;24.75;;;10.18;;
32864;SDS011;19219;44.500;11.188;2023-06-24T00:28:19;17.88;;;9.82;;
32864;SDS011;19219;44.500;11.188;2023-06-24T00:30:45;17.08;;;9.20;;
32864;SDS011;19219;44.500;11.188;2023-06-24T00:33:12;16.85;;;10.18;;
32864;SDS011;19219;44.500;11.188;2023-06-24T00:35:38;19.90;;;9.80;;
32864;SDS011;19219;44.500;11.188;2023-06-24T00:38:05;18.15;;;9.82;;
32864;SDS011;19219;44.500;11.188;2023-06-24T00:40:30;22.40;;;10.25;;
32864;SDS011;19219;44.500;11.188;2023-06-24T00:42:56;13.48;;;8.88;;
32864;SDS011;19219;44.500;11.188;2023-06-24T00:45:24;24.15;;;11.18;;
32864;SDS011;19219;44.500;11.188;2023-06-24T00:47:49;14.20;;;9.38;;
32864;SDS011;19219;44.500;11.188;2023-06-24T00:50:16;23.83;;;9.68;;
32864;SDS011;19219;44.500;11.188;2023-06-24T00:52:42;17.08;;;9.70;;
32864;SDS011;19219;44.500;11.188;2023-06-24T00:55:09;24.50;;;9.32;;
32864;SDS011;19219;44.500;11.188;2023-06-24T00:57:37;16.67;;;9.73;;
32864;SDS011;19219;44.500;11.188;2023-06-24T01:00:04;14.25;;;8.57;;
32864;SDS011;19219;44.500;11.188;2023-06-24T01:02:51;15.52;;;9.68;;
32864;SDS011;19219;44.500;11.188;2023-06-24T01:05:17;21.40;;;9.35;;
32864;SDS011;19219;44.500;11.188;2023-06-24T01:07:43;19.13;;;9.73;;
32864;SDS011;19219;44.500;11.188;2023-06-24T01:10:09;10.60;;;8.65;;
32864;SDS011;19219;44.500;11.188;2023-06-24T01:12:38;15.27;;;8.38;;
32864;SDS011;19219;44.500;11.188;2023-06-24T01:15:05;15.63;;;9.43;;
32864;SDS011;19219;44.500;11.188;2023-06-24T01:23:11;15.52;;;8.77;;
32864;SDS011;19219;44.500;11.188;2023-06-24T01:34:04;13.82;;;9.45;;
32864;SDS011;19219;44.500;11.188;2023-06-24T01:36:40;14.48;;;7.63;;
32864;SDS011;19219;44.500;11.188;2023-06-24T01:39:12;12.18;;;8.27;;
32864;SDS011;19219;44.500;11.188;2023-06-24T01:41:42;16.27;;;8.93;;
32864;SDS011;19219;44.500;11.188;2023-06-24T01:44:16;16.17;;;8.82;;
32864;SDS011;19219;44.500;11.188;2023-06-24T01:46:44;14.43;;;7.60;;
32864;SDS011;19219;44.500;11.188;2023-06-24T01:49:12;18.65;;;8.85;;
32864;SDS011;19219;44.500;11.188;2023-06-24T01:51:41;19.20;;;8.38;;
32864;SDS011;19219;44.500;11.188;2023-06-24T01:54:12;14.68;;;9.43;;
32864;SDS011;19219;44.500;11.188;2023-06-24T01:56:41;15.38;;;8.45;;
32864;SDS011;19219;44.500;11.188;2023-06-24T01:59:08;20.83;;;7.80;;
32864;SDS011;19219;44.500;11.188;2023-06-24T02:01:37;30.85;;;11.00;;
32864;SDS011;19219;44.500;11.188;2023-06-24T02:04:04;22.48;;;9.50;;
32864;SDS011;19219;44.500;11.188;2023-06-24T02:09:00;20.33;;;8.73;;
32864;SDS011;19219;44.500;11.188;2023-06-24T02:11:26;17.85;;;8.07;;
32864;SDS011;19219;44.500;11.188;2023-06-24T02:13:55;19.48;;;8.65;;
32864;SDS011;19219;44.500;11.188;2023-06-24T02:16:21;23.30;;;9.35;;
32864;SDS011;19219;44.500;11.188;2023-06-24T02:18:48;24.30;;;11.32;;
32864;SDS011;19219;44.500;11.188;2023-06-24T02:21:16;10.63;;;7.72;;
32864;SDS011;19219;44.500;11.188;2023-06-24T02:23:46;19.35;;;8.82;;
32864;SDS011;19219;44.500;11.188;2023-06-24T02:26:13;13.48;;;8.55;;
32864;SDS011;19219;44.500;11.188;2023-06-24T02:28:40;13.70;;;8.27;;
32864;SDS011;19219;44.500;11.188;2023-06-24T02:31:06;15.13;;;8.73;;
32864;SDS011;19219;44.500;11.188;2023-06-24T02:33:35;19.85;;;9.15;;
32864;SDS011;19219;44.500;11.188;2023-06-24T02:36:01;14.40;;;8.07;;
32864;SDS011;19219;44.500;11.188;2023-06-24T02:38:27;11.38;;;8.32;;
32864;SDS011;19219;44.500;11.188;2023-06-24T02:40:52;10.90;;;8.82;;
32864;SDS011;19219;44.500;11.188;2023-06-24T02:43:18;12.45;;;7.72;;
32864;SDS011;19219;44.500;11.188;2023-06-24T02:45:44;10.00;;;8.13;;
32864;SDS011;19219;44.500;11.188;2023-06-24T02:48:12;10.77;;;7.50;;
32864;SDS011;19219;44.500;11.188;2023-06-24T02:50:39;17.38;;;8.13;;
32864;SDS011;19219;44.500;11.188;2023-06-24T02:53:08;14.13;;;7.72;;
32864;SDS011;19219;44.500;11.188;2023-06-24T02:55:36;23.70;;;7.93;;
32864;SDS011;19219;44.500;11.188;2023-06-24T02:58:04;13.55;;;9.05;;
32864;SDS011;19219;44.500;11.188;2023-06-24T03:00:33;13.57;;;7.57;;
32864;SDS011;19219;44.500;11.188;2023-06-24T03:03:03;13.82;;;7.18;;
32864;SDS011;19219;44.500;11.188;2023-06-24T03:05:30;18.52;;;7.90;;
32864;SDS011;19219;44.500;11.188;2023-06-24T03:07:57;20.10;;;7.28;;
32864;SDS011;19219;44.500;11.188;2023-06-24T03:10:24;13.27;;;7.63;;
32864;SDS011;19219;44.500;11.188;2023-06-24T03:12:50;14.70;;;6.63;;
32864;SDS011;19219;44.500;11.188;2023-06-24T03:15:16;25.27;;;8.43;;
32864;SDS011;19219;44.500;11.188;2023-06-24T03:17:42;15.32;;;7.63;;
32864;SDS011;19219;44.500;11.188;2023-06-24T03:20:08;13.85;;;7.70;;
32864;SDS011;19219;44.500;11.188;2023-06-24T03:22:34;16.35;;;8.23;;
32864;SDS011;19219;44.500;11.188;2023-06-24T03:25:00;16.88;;;8.35;;
32864;SDS011;19219;44.500;11.188;2023-06-24T03:27:26;65.35;;;31.83;;
32864;SDS011;19219;44.500;11.188;2023-06-24T03:29:51;40.97;;;23.48;;
32864;SDS011;19219;44.500;11.188;2023-06-24T03:32:17;26.85;;;9.07;;
32864;SDS011;19219;44.500;11.188;2023-06-24T03:34:42;19.05;;;7.97;;
32864;SDS011;19219;44.500;11.188;2023-06-24T03:37:08;15.57;;;6.80;;
32864;SDS011;19219;44.500;11.188;2023-06-24T03:39:34;18.30;;;8.82;;
32864;SDS011;19219;44.500;11.188;2023-06-24T03:41:59;17.83;;;8.45;;
32864;SDS011;19219;44.500;11.188;2023-06-24T03:44:25;11.73;;;6.13;;
32864;SDS011;19219;44.500;11.188;2023-06-24T03:46:51;16.55;;;6.70;;
32864;SDS011;19219;44.500;11.188;2023-06-24T03:49:17;19.25;;;7.65;;
32864;SDS011;19219;44.500;11.188;2023-06-24T03:51:43;11.70;;;6.65;;
32864;SDS011;19219;44.500;11.188;2023-06-24T03:54:09;17.75;;;6.82;;
32864;SDS011;19219;44.500;11.188;2023-06-24T03:56:34;21.50;;;7.72;;
32864;SDS011;19219;44.500;11.188;2023-06-24T03:59:00;13.15;;;6.45;;
32864;SDS011;19219;44.500;11.188;2023-06-24T04:01:26;11.95;;;6.40;;
32864;SDS011;19219;44.500;11.188;2023-06-24T04:03:52;29.30;;;17.15;;
32864;SDS011;19219;44.500;11.188;2023-06-24T04:06:17;28.85;;;15.80;;
32864;SDS011;19219;44.500;11.188;2023-06-24T04:08:43;13.00;;;6.60;;
32864;SDS011;19219;44.500;11.188;2023-06-24T04:11:09;10.95;;;6.10;;
32864;SDS011;19219;44.500;11.188;2023-06-24T04:13:35;13.23;;;6.53;;
32864;SDS011;19219;44.500;11.188;2023-06-24T04:16:01;22.05;;;6.75;;
32864;SDS011;19219;44.500;11.188;2023-06-24T04:18:27;13.35;;;6.40;;
32864;SDS011;19219;44.500;11.188;2023-06-24T04:20:53;12.23;;;6.10;;
32864;SDS011;19219;44.500;11.188;2023-06-24T04:23:18;12.43;;;6.35;;
32864;SDS011;19219;44.500;11.188;2023-06-24T04:25:44;16.42;;;6.55;;
32864;SDS011;19219;44.500;11.188;2023-06-24T04:28:10;18.58;;;6.75;;
32864;SDS011;19219;44.500;11.188;2023-06-24T04:30:35;10.00;;;5.93;;
32864;SDS011;19219;44.500;11.188;2023-06-24T04:33:03;17.70;;;6.47;;
32864;SDS011;19219;44.500;11.188;2023-06-24T04:35:29;8.13;;;6.10;;
32864;SDS011;19219;44.500;11.188;2023-06-24T04:37:55;10.70;;;6.07;;
32864;SDS011;19219;44.500;11.188;2023-06-24T04:40:21;12.73;;;7.07;;
32864;SDS011;19219;44.500;11.188;2023-06-24T04:42:47;12.20;;;6.43;;
32864;SDS011;19219;44.500;11.188;2023-06-24T04:45:12;9.60;;;5.93;;
32864;SDS011;19219;44.500;11.188;2023-06-24T04:47:38;10.50;;;6.35;;
32864;SDS011;19219;44.500;11.188;2023-06-24T04:50:04;14.70;;;6.57;;
32864;SDS011;19219;44.500;11.188;2023-06-24T04:52:30;14.40;;;7.35;;
32864;SDS011;19219;44.500;11.188;2023-06-24T04:54:56;11.18;;;6.50;;
32864;SDS011;19219;44.500;11.188;2023-06-24T04:57:26;10.48;;;6.15;;
32864;SDS011;19219;44.500;11.188;2023-06-24T04:59:56;14.45;;;6.20;;
32864;SDS011;19219;44.500;11.188;2023-06-24T05:02:22;12.30;;;6.55;;
32864;SDS011;19219;44.500;11.188;2023-06-24T05:04:48;10.82;;;6.90;;
32864;SDS011;19219;44.500;11.188;2023-06-24T05:07:14;12.23;;;7.55;;
32864;SDS011;19219;44.500;11.188;2023-06-24T05:09:40;11.90;;;6.07;;
32864;SDS011;19219;44.500;11.188;2023-06-24T05:12:06;11.95;;;6.50;;
32864;SDS011;19219;44.500;11.188;2023-06-24T05:14:36;16.92;;;7.43;;
32864;SDS011;19219;44.500;11.188;2023-06-24T05:17:02;12.43;;;7.47;;
32864;SDS011;19219;44.500;11.188;2023-06-24T05:19:28;11.05;;;6.68;;
32864;SDS011;19219;44.500;11.188;2023-06-24T05:21:54;13.20;;;7.05;;
32864;SDS011;19219;44.500;11.188;2023-06-24T05:24:20;16.55;;;8.88;;
32864;SDS011;19219;44.500;11.188;2023-06-24T05:26:49;12.65;;;7.50;;
32864;SDS011;19219;44.500;11.188;2023-06-24T05:29:15;14.55;;;8.38;;
32864;SDS011;19219;44.500;11.188;2023-06-24T05:31:41;17.55;;;8.48;;
32864;SDS011;19219;44.500;11.188;2023-06-24T05:34:07;13.32;;;7.47;;
32864;SDS011;19219;44.500;11.188;2023-06-24T05:36:33;13.45;;;6.40;;
32864;SDS011;19219;44.500;11.188;2023-06-24T05:38:59;11.77;;;6.25;;
32864;SDS011;19219;44.500;11.188;2023-06-24T05:41:25;11.25;;;6.50;;
32864;SDS011;19219;44.500;11.188;2023-06-24T05:44:09;10.77;;;5.95;;
32864;SDS011;19219;44.500;11.188;2023-06-24T05:46:35;10.80;;;6.72;;
32864;SDS011;19219;44.500;11.188;2023-06-24T05:49:01;17.90;;;7.70;;
32864;SDS011;19219;44.500;11.188;2023-06-24T05:51:27;12.88;;;7.05;;
32864;SDS011;19219;44.500;11.188;2023-06-24T05:53:53;10.20;;;6.82;;
32864;SDS011;19219;44.500;11.188;2023-06-24T05:56:19;12.35;;;7.50;;
32864;SDS011;19219;44.500;11.188;2023-06-24T05:58:46;19.40;;;8.35;;
32864;SDS011;19219;44.500;11.188;2023-06-24T06:01:12;11.98;;;6.90;;
32864;SDS011;19219;44.500;11.188;2023-06-24T06:03:37;9.50;;;6.22;;
32864;SDS011;19219;44.500;11.188;2023-06-24T06:06:03;8.68;;;6.05;;
32864;SDS011;19219;44.500;11.188;2023-06-24T06:08:29;9.02;;;5.38;;
32864;SDS011;19219;44.500;11.188;2023-06-24T06:10:55;11.65;;;6.45;;
32864;SDS011;19219;44.500;11.188;2023-06-24T06:13:21;11.30;;;6.65;;
32864;SDS011;19219;44.500;11.188;2023-06-24T06:15:47;8.43;;;5.18;;
32864;SDS011;19219;44.500;11.188;2023-06-24T06:18:12;7.47;;;5.15;;
32864;SDS011;19219;44.500;11.188;2023-06-24T06:20:38;6.97;;;4.75;;
32864;SDS011;19219;44.500;11.188;2023-06-24T06:23:04;11.48;;;5.18;;
32864;SDS011;19219;44.500;11.188;2023-06-24T06:25:29;12.60;;;9.18;;
32864;SDS011;19219;44.500;11.188;2023-06-24T06:27:55;16.23;;;7.28;;
32864;SDS011;19219;44.500;11.188;2023-06-24T06:30:21;9.85;;;5.10;;
32864;SDS011;19219;44.500;11.188;2023-06-24T06:32:46;7.40;;;5.43;;
32864;SDS011;19219;44.500;11.188;2023-06-24T06:35:12;9.77;;;6.13;;
32864;SDS011;19219;44.500;11.188;2023-06-24T06:37:38;18.85;;;11.18;;
32864;SDS011;19219;44.500;11.188;2023-06-24T06:40:04;18.80;;;12.65;;
32864;SDS011;19219;44.500;11.188;2023-06-24T06:42:30;12.60;;;6.97;;
32864;SDS011;19219;44.500;11.188;2023-06-24T06:44:56;8.20;;;6.03;;
32864;SDS011;19219;44.500;11.188;2023-06-24T06:47:22;9.77;;;6.10;;
32864;SDS011;19219;44.500;11.188;2023-06-24T06:49:48;9.18;;;5.68;;
32864;SDS011;19219;44.500;11.188;2023-06-24T06:52:14;9.70;;;5.65;;
32864;SDS011;19219;44.500;11.188;2023-06-24T06:54:39;10.20;;;5.88;;
32864;SDS011;19219;44.500;11.188;2023-06-24T06:57:05;9.25;;;5.25;;
32864;SDS011;19219;44.500;11.188;2023-06-24T06:59:31;7.55;;;5.22;;
32864;SDS011;19219;44.500;11.188;2023-06-24T07:01:57;9.10;;;5.32;;
32864;SDS011;19219;44.500;11.188;2023-06-24T07:04:23;6.63;;;4.93;;
32864;SDS011;19219;44.500;11.188;2023-06-24T07:06:49;11.25;;;5.65;;
32864;SDS011;19219;44.500;11.188;2023-06-24T07:09:15;19.05;;;5.85;;
32864;SDS011;19219;44.500;11.188;2023-06-24T07:11:41;13.15;;;5.78;;
32864;SDS011;19219;44.500;11.188;2023-06-24T07:14:07;7.00;;;4.60;;
32864;SDS011;19219;44.500;11.188;2023-06-24T07:16:33;10.68;;;5.35;;
32864;SDS011;19219;44.500;11.188;2023-06-24T07:18:58;5.80;;;4.40;;
32864;SDS011;19219;44.500;11.188;2023-06-24T07:21:24;9.15;;;4.78;;
32864;SDS011;19219;44.500;11.188;2023-06-24T07:23:50;10.57;;;5.18;;
32864;SDS011;19219;44.500;11.188;2023-06-24T07:26:16;8.50;;;4.88;;
32864;SDS011;19219;44.500;11.188;2023-06-24T07:28:41;9.27;;;5.55;;
32864;SDS011;19219;44.500;11.188;2023-06-24T07:31:07;9.02;;;4.72;;
32864;SDS011;19219;44.500;11.188;2023-06-24T07:33:33;14.38;;;8.73;;
32864;SDS011;19219;44.500;11.188;2023-06-24T07:35:59;10.60;;;7.47;;
32864;SDS011;19219;44.500;11.188;2023-06-24T07:38:27;19.52;;;8.40;;
32864;SDS011;19219;44.500;11.188;2023-06-24T07:40:54;11.27;;;5.38;;
32864;SDS011;19219;44.500;11.188;2023-06-24T07:43:19;8.80;;;5.18;;
32864;SDS011;19219;44.500;11.188;2023-06-24T07:45:45;10.30;;;5.60;;
32864;SDS011;19219;44.500;11.188;2023-06-24T07:48:10;9.90;;;5.43;;
32864;SDS011;19219;44.500;11.188;2023-06-24T07:50:37;11.63;;;4.47;;
32864;SDS011;19219;44.500;11.188;2023-06-24T07:53:04;5.45;;;4.03;;
32864;SDS011;19219;44.500;11.188;2023-06-24T07:55:30;9.73;;;7.40;;
32864;SDS011;19219;44.500;11.188;2023-06-24T07:57:55;10.82;;;5.43;;
32864;SDS011;19219;44.500;11.188;2023-06-24T08:00:23;6.45;;;4.65;;
32864;SDS011;19219;44.500;11.188;2023-06-24T08:02:49;6.82;;;4.90;;
32864;SDS011;19219;44.500;11.188;2023-06-24T08:05:15;5.00;;;4.18;;
32864;SDS011;19219;44.500;11.188;2023-06-24T08:07:43;7.25;;;4.78;;
32864;SDS011;19219;44.500;11.188;2023-06-24T08:10:09;10.45;;;4.97;;
32864;SDS011;19219;44.500;11.188;2023-06-24T08:12:35;6.43;;;4.63;;
32864;SDS011;19219;44.500;11.188;2023-06-24T08:15:00;7.00;;;4.60;;
32864;SDS011;19219;44.500;11.188;2023-06-24T08:17:26;7.95;;;4.32;;
32864;SDS011;19219;44.500;11.188;2023-06-24T08:19:52;7.53;;;4.15;;
32864;SDS011;19219;44.500;11.188;2023-06-24T08:22:17;5.70;;;4.20;;
32864;SDS011;19219;44.500;11.188;2023-06-24T08:24:43;7.18;;;5.50;;
32864;SDS011;19219;44.500;11.188;2023-06-24T08:27:09;7.03;;;5.57;;
32864;SDS011;19219;44.500;11.188;2023-06-24T08:29:35;6.10;;;4.30;;
32864;SDS011;19219;44.500;11.188;2023-06-24T08:32:00;10.15;;;4.55;;
32864;SDS011;19219;44.500;11.188;2023-06-24T08:34:26;8.18;;;4.13;;
32864;SDS011;19219;44.500;11.188;2023-06-24T08:36:52;11.77;;;5.93;;
32864;SDS011;19219;44.500;11.188;2023-06-24T08:39:17;6.38;;;4.45;;
32864;SDS011;19219;44.500;11.188;2023-06-24T08:41:43;7.20;;;4.28;;
32864;SDS011;19219;44.500;11.188;2023-06-24T08:44:08;6.93;;;4.45;;
32864;SDS011;19219;44.500;11.188;2023-06-24T08:46:34;7.13;;;4.57;;
32864;SDS011;19219;44.500;11.188;2023-06-24T08:51:50;8.80;;;5.13;;
32864;SDS011;19219;44.500;11.188;2023-06-24T08:54:28;7.78;;;5.13;;
32864;SDS011;19219;44.500;11.188;2023-06-24T08:56:57;8.73;;;4.88;;
32864;SDS011;19219;44.500;11.188;2023-06-24T08:59:23;5.63;;;3.78;;
32864;SDS011;19219;44.500;11.188;2023-06-24T09:01:51;6.10;;;4.25;;
32864;SDS011;19219;44.500;11.188;2023-06-24T09:04:17;7.27;;;4.80;;
32864;SDS011;19219;44.500;11.188;2023-06-24T09:06:43;8.20;;;4.07;;
32864;SDS011;19219;44.500;11.188;2023-06-24T09:09:19;10.93;;;4.28;;
32864;SDS011;19219;44.500;11.188;2023-06-24T09:11:56;6.60;;;4.55;;
32864;SDS011;19219;44.500;11.188;2023-06-24T09:14:26;6.40;;;4.70;;
32864;SDS011;19219;44.500;11.188;2023-06-24T09:16:54;8.23;;;4.22;;
32864;SDS011;19219;44.500;11.188;2023-06-24T09:19:28;9.68;;;4.60;;
32864;SDS011;19219;44.500;11.188;2023-06-24T09:21:55;11.13;;;5.63;;
32864;SDS011;19219;44.500;11.188;2023-06-24T09:24:26;14.25;;;4.93;;
32864;SDS011;19219;44.500;11.188;2023-06-24T09:26:53;7.43;;;4.25;;
32864;SDS011;19219;44.500;11.188;2023-06-24T09:29:22;7.68;;;4.63;;
32864;SDS011;19219;44.500;11.188;2023-06-24T09:31:51;8.50;;;4.43;;
32864;SDS011;19219;44.500;11.188;2023-06-24T09:34:22;9.25;;;5.00;;
32864;SDS011;19219;44.500;11.188;2023-06-24T09:36:51;9.90;;;4.47;;
32864;SDS011;19219;44.500;11.188;2023-06-24T09:39:18;10.68;;;5.97;;
32864;SDS011;19219;44.500;11.188;2023-06-24T09:41:49;8.23;;;4.20;;
32864;SDS011;19219;44.500;11.188;2023-06-24T09:44:17;8.98;;;5.10;;
32864;SDS011;19219;44.500;11.188;2023-06-24T09:46:46;7.70;;;4.45;;
32864;SDS011;19219;44.500;11.188;2023-06-24T09:49:12;7.63;;;4.18;;
32864;SDS011;19219;44.500;11.188;2023-06-24T09:51:40;4.60;;;3.85;;
32864;SDS011;19219;44.500;11.188;2023-06-24T09:54:10;8.57;;;4.00;;
32864;SDS011;19219;44.500;11.188;2023-06-24T09:56:38;7.72;;;4.57;;
32864;SDS011;19219;44.500;11.188;2023-06-24T09:59:08;9.00;;;4.82;;
32864;SDS011;19219;44.500;11.188;2023-06-24T10:01:35;11.88;;;4.70;;
32864;SDS011;19219;44.500;11.188;2023-06-24T10:04:04;5.68;;;4.20;;
32864;SDS011;19219;44.500;11.188;2023-06-24T10:06:31;8.15;;;4.10;;
32864;SDS011;19219;44.500;11.188;2023-06-24T10:09:00;5.57;;;4.35;;
32864;SDS011;19219;44.500;11.188;2023-06-24T10:11:26;6.20;;;5.07;;
32864;SDS011;19219;44.500;11.188;2023-06-24T10:13:52;7.43;;;4.55;;
32864;SDS011;19219;44.500;11.188;2023-06-24T10:16:18;6.75;;;3.95;;
32864;SDS011;19219;44.500;11.188;2023-06-24T10:18:44;7.40;;;4.35;;
32864;SDS011;19219;44.500;11.188;2023-06-24T10:21:10;8.45;;;4.60;;
32864;SDS011;19219;44.500;11.188;2023-06-24T10:26:22;5.30;;;4.18;;
32864;SDS011;19219;44.500;11.188;2023-06-24T10:36:55;6.38;;;4.22;;
32864;SDS011;19219;44.500;11.188;2023-06-24T10:47:34;4.32;;;3.08;;
32864;SDS011;19219;44.500;11.188;2023-06-24T10:50:06;5.72;;;3.75;;
32864;SDS011;19219;44.500;11.188;2023-06-24T10:52:37;6.43;;;3.28;;
32864;SDS011;19219;44.500;11.188;2023-06-24T10:55:06;5.70;;;3.80;;
32864;SDS011;19219;44.500;11.188;2023-06-24T10:57:32;5.53;;;3.60;;
32864;SDS011;19219;44.500;11.188;2023-06-24T10:59:58;5.20;;;3.35;;
32864;SDS011;19219;44.500;11.188;2023-06-24T11:02:25;5.90;;;3.10;;
32864;SDS011;19219;44.500;11.188;2023-06-24T11:04:53;10.93;;;6.03;;
32864;SDS011;19219;44.500;11.188;2023-06-24T11:07:24;4.68;;;3.70;;
32864;SDS011;19219;44.500;11.188;2023-06-24T11:09:51;5.22;;;3.20;;
32864;SDS011;19219;44.500;11.188;2023-06-24T11:12:27;4.80;;;2.72;;
32864;SDS011;19219;44.500;11.188;2023-06-24T11:14:55;4.82;;;3.47;;
32864;SDS011;19219;44.500;11.188;2023-06-24T11:17:22;4.70;;;3.17;;
32864;SDS011;19219;44.500;11.188;2023-06-24T11:19:49;3.42;;;3.00;;
32864;SDS011;19219;44.500;11.188;2023-06-24T11:22:15;4.72;;;3.63;;
32864;SDS011;19219;44.500;11.188;2023-06-24T11:24:40;4.80;;;3.40;;
32864;SDS011;19219;44.500;11.188;2023-06-24T11:27:06;3.95;;;3.25;;
32864;SDS011;19219;44.500;11.188;2023-06-24T11:29:32;5.70;;;4.03;;
32864;SDS011;19219;44.500;11.188;2023-06-24T11:32:00;5.80;;;3.25;;
32864;SDS011;19219;44.500;11.188;2023-06-24T11:34:31;5.45;;;3.15;;
32864;SDS011;19219;44.500;11.188;2023-06-24T11:36:57;7.60;;;3.08;;
32864;SDS011;19219;44.500;11.188;2023-06-24T11:39:29;4.25;;;3.22;;
32864;SDS011;19219;44.500;11.188;2023-06-24T11:41:57;4.10;;;3.40;;
32864;SDS011;19219;44.500;11.188;2023-06-24T11:44:25;3.97;;;3.03;;
32864;SDS011;19219;44.500;11.188;2023-06-24T11:46:51;3.55;;;2.97;;
32864;SDS011;19219;44.500;11.188;2023-06-24T11:49:17;5.50;;;3.55;;
32864;SDS011;19219;44.500;11.188;2023-06-24T11:51:50;3.75;;;3.15;;
32864;SDS011;19219;44.500;11.188;2023-06-24T11:54:18;4.65;;;2.53;;
32864;SDS011;19219;44.500;11.188;2023-06-24T11:56:52;3.75;;;2.80;;
32864;SDS011;19219;44.500;11.188;2023-06-24T11:59:18;5.03;;;2.85;;
32864;SDS011;19219;44.500;11.188;2023-06-24T12:01:49;6.15;;;3.15;;
32864;SDS011;19219;44.500;11.188;2023-06-24T12:04:21;7.35;;;5.57;;
32864;SDS011;19219;44.500;11.188;2023-06-24T12:06:53;5.28;;;3.42;;
32864;SDS011;19219;44.500;11.188;2023-06-24T12:09:19;4.90;;;3.15;;
32864;SDS011;19219;44.500;11.188;2023-06-24T12:11:45;4.07;;;3.15;;
32864;SDS011;19219;44.500;11.188;2023-06-24T12:14:10;4.78;;;3.30;;
32864;SDS011;19219;44.500;11.188;2023-06-24T12:16:37;6.35;;;2.58;;
32864;SDS011;19219;44.500;11.188;2023-06-24T12:19:04;4.35;;;3.03;;
32864;SDS011;19219;44.500;11.188;2023-06-24T12:21:30;6.35;;;3.38;;
32864;SDS011;19219;44.500;11.188;2023-06-24T12:23:55;5.13;;;3.17;;
32864;SDS011;19219;44.500;11.188;2023-06-24T12:26:21;2.97;;;2.47;;
32864;SDS011;19219;44.500;11.188;2023-06-24T12:28:47;3.50;;;3.10;;
32864;SDS011;19219;44.500;11.188;2023-06-24T12:31:12;3.75;;;2.50;;
32864;SDS011;19219;44.500;11.188;2023-06-24T12:33:38;3.67;;;2.60;;
32864;SDS011;19219;44.500;11.188;2023-06-24T12:36:03;2.95;;;2.42;;
32864;SDS011;19219;44.500;11.188;2023-06-24T12:38:30;3.50;;;2.60;;
32864;SDS011;19219;44.500;11.188;2023-06-24T12:40:56;3.88;;;2.40;;
32864;SDS011;19219;44.500;11.188;2023-06-24T12:43:22;2.88;;;2.45;;
32864;SDS011;19219;44.500;11.188;2023-06-24T12:45:48;3.65;;;2.35;;
32864;SDS011;19219;44.500;11.188;2023-06-24T12:48:16;2.28;;;2.10;;
32864;SDS011;19219;44.500;11.188;2023-06-24T12:50:41;2.35;;;2.00;;
32864;SDS011;19219;44.500;11.188;2023-06-24T12:53:07;3.15;;;2.20;;
32864;SDS011;19219;44.500;11.188;2023-06-24T12:55:35;3.47;;;2.65;;
32864;SDS011;19219;44.500;11.188;2023-06-24T12:58:01;6.82;;;3.05;;
32864;SDS011;19219;44.500;11.188;2023-06-24T13:00:27;4.22;;;2.75;;
32864;SDS011;19219;44.500;11.188;2023-06-24T13:02:52;4.28;;;2.28;;
32864;SDS011;19219;44.500;11.188;2023-06-24T13:05:18;3.53;;;2.38;;
32864;SDS011;19219;44.500;11.188;2023-06-24T13:07:44;2.42;;;2.20;;
32864;SDS011;19219;44.500;11.188;2023-06-24T13:10:10;6.30;;;3.03;;
32864;SDS011;19219;44.500;11.188;2023-06-24T13:12:36;3.97;;;2.25;;
32864;SDS011;19219;44.500;11.188;2023-06-24T13:15:02;3.40;;;2.50;;
32864;SDS011;19219;44.500;11.188;2023-06-24T13:17:34;2.40;;;2.15;;
32864;SDS011;19219;44.500;11.188;2023-06-24T13:20:00;5.45;;;2.42;;
32864;SDS011;19219;44.500;11.188;2023-06-24T13:22:28;4.05;;;2.10;;
32864;SDS011;19219;44.500;11.188;2023-06-24T13:24:53;2.15;;;1.88;;
32864;SDS011;19219;44.500;11.188;2023-06-24T13:27:19;4.38;;;2.10;;
32864;SDS011;19219;44.500;11.188;2023-06-24T13:29:44;3.35;;;2.10;;
32864;SDS011;19219;44.500;11.188;2023-06-24T13:32:10;5.28;;;1.70;;
32864;SDS011;19219;44.500;11.188;2023-06-24T13:34:36;2.28;;;2.00;;
32864;SDS011;19219;44.500;11.188;2023-06-24T13:37:01;1.88;;;1.70;;
32864;SDS011;19219;44.500;11.188;2023-06-24T13:39:27;2.03;;;1.80;;
32864;SDS011;19219;44.500;11.188;2023-06-24T13:41:53;2.55;;;1.85;;
32864;SDS011;19219;44.500;11.188;2023-06-24T13:44:19;2.17;;;1.90;;
32864;SDS011;19219;44.500;11.188;2023-06-24T13:46:44;1.95;;;1.60;;
32864;SDS011;19219;44.500;11.188;2023-06-24T13:49:10;1.98;;;1.80;;
32864;SDS011;19219;44.500;11.188;2023-06-24T13:51:36;2.72;;;2.00;;
32864;SDS011;19219;44.500;11.188;2023-06-24T13:54:02;2.40;;;1.83;;
32864;SDS011;19219;44.500;11.188;2023-06-24T13:56:28;3.90;;;2.20;;
32864;SDS011;19219;44.500;11.188;2023-06-24T13:58:54;1.63;;;1.52;;
32864;SDS011;19219;44.500;11.188;2023-06-24T14:01:20;3.58;;;1.50;;
32864;SDS011;19219;44.500;11.188;2023-06-24T14:03:47;5.07;;;1.77;;
32864;SDS011;19219;44.500;11.188;2023-06-24T14:06:16;2.13;;;1.83;;
32864;SDS011;19219;44.500;11.188;2023-06-24T14:08:44;4.22;;;1.65;;
32864;SDS011;19219;44.500;11.188;2023-06-24T14:11:10;7.18;;;2.33;;
32864;SDS011;19219;44.500;11.188;2023-06-24T14:13:37;2.10;;;1.88;;
32864;SDS011;19219;44.500;11.188;2023-06-24T14:16:04;1.75;;;1.52;;
32864;SDS011;19219;44.500;11.188;2023-06-24T14:18:30;7.65;;;1.90;;
32864;SDS011;19219;44.500;11.188;2023-06-24T14:20:57;4.57;;;1.90;;
32864;SDS011;19219;44.500;11.188;2023-06-24T14:23:23;4.10;;;2.63;;
32864;SDS011;19219;44.500;11.188;2023-06-24T14:25:50;2.83;;;2.28;;
32864;SDS011;19219;44.500;11.188;2023-06-24T14:28:16;2.22;;;1.70;;
32864;SDS011;19219;44.500;11.188;2023-06-24T14:30:42;3.80;;;1.48;;
32864;SDS011;19219;44.500;11.188;2023-06-24T14:33:08;1.73;;;1.63;;
32864;SDS011;19219;44.500;11.188;2023-06-24T14:35:34;2.75;;;1.40;;
32864;SDS011;19219;44.500;11.188;2023-06-24T14:37:59;2.25;;;1.45;;
32864;SDS011;19219;44.500;11.188;2023-06-24T14:40:25;2.58;;;1.67;;
32864;SDS011;19219;44.500;11.188;2023-06-24T14:42:50;4.60;;;2.80;;
32864;SDS011;19219;44.500;11.188;2023-06-24T14:45:16;2.80;;;2.03;;
32864;SDS011;19219;44.500;11.188;2023-06-24T14:47:42;2.42;;;1.45;;
32864;SDS011;19219;44.500;11.188;2023-06-24T14:50:08;2.95;;;2.10;;
32864;SDS011;19219;44.500;11.188;2023-06-24T14:52:33;5.53;;;2.90;;
32864;SDS011;19219;44.500;11.188;2023-06-24T14:54:59;6.97;;;4.20;;
32864;SDS011;19219;44.500;11.188;2023-06-24T14:57:25;2.45;;;2.10;;
32864;SDS011;19219;44.500;11.188;2023-06-24T14:59:51;7.65;;;5.22;;
32864;SDS011;19219;44.500;11.188;2023-06-24T15:02:16;21.90;;;13.35;;
32864;SDS011;19219;44.500;11.188;2023-06-24T15:04:42;5.53;;;3.78;;